Time;durP1;ratioP1;P1;durP2;ratioP2;P2;SDS_P1;SDS_P2;PMS_P1;PMS_P2;Temp;Humidity;BMP_temperature;BMP_pressure;BME280_temperature;BME280_humidity;BME280_pressure;Samples;Min_cycle;Max_cycle;Signal;HPM_P1;HPM_P2
2022/03/13 00:02:27;;;;;;;38.40;18.67;;;2.90;73.50;;;;;;4986354;28;20222;-82
2022/03/13 00:05:17;;;;;;;43.77;18.53;;;2.90;73.60;;;;;;4993223;28;20226;-83
2022/03/13 00:08:18;;;;;;;38.93;19.20;;;2.90;74.00;;;;;;4989422;28;20268;-82
2022/03/13 00:11:08;;;;;;;42.57;18.47;;;2.90;74.40;;;;;;5003348;28;20638;-82
2022/03/13 00:13:58;;;;;;;49.13;20.00;;;2.90;74.60;;;;;;5006242;28;20597;-83
2022/03/13 00:16:49;;;;;;;42.73;19.27;;;2.90;75.00;;;;;;4988699;28;20229;-82
2022/03/13 00:19:39;;;;;;;41.40;19.50;;;2.90;75.30;;;;;;4989183;28;20229;-81
2022/03/13 00:22:29;;;;;;;39.00;19.80;;;2.80;75.30;;;;;;4989384;28;20222;-81
2022/03/13 00:25:17;;;;;;;43.03;19.50;;;2.90;76.00;;;;;;5001908;28;20281;-81
2022/03/13 00:28:07;;;;;;;40.57;18.97;;;2.90;76.20;;;;;;4989270;28;20416;-82
2022/03/13 00:30:56;;;;;;;46.13;19.77;;;2.80;76.60;;;;;;5005828;28;20759;-80
2022/03/13 00:33:46;;;;;;;40.13;20.07;;;2.70;77.60;;;;;;4988499;28;20221;-81
2022/03/13 00:36:35;;;;;;;40.60;20.23;;;2.70;78.50;;;;;;4990018;28;20226;-82
2022/03/13 00:39:27;;;;;;;41.20;19.57;;;2.70;78.60;;;;;;4989030;28;20229;-81
2022/03/13 00:42:17;;;;;;;45.33;20.60;;;2.60;79.20;;;;;;5003080;28;20224;-81
2022/03/13 00:45:06;;;;;;;39.37;18.87;;;2.60;79.10;;;;;;4987724;28;20226;-81
2022/03/13 00:47:55;;;;;;;45.43;19.87;;;2.60;80.70;;;;;;5002984;28;20230;-80
2022/03/13 00:50:46;;;;;;;47.60;20.40;;;2.60;80.60;;;;;;5000277;28;20257;-80
2022/03/13 00:53:35;;;;;;;41.00;20.50;;;2.60;80.10;;;;;;4987924;28;20861;-82
2022/03/13 00:56:23;;;;;;;41.57;19.33;;;2.60;80.70;;;;;;4989696;28;20210;-80
2022/03/13 00:59:12;;;;;;;36.27;19.57;;;2.50;81.70;;;;;;4990179;28;20233;-80
2022/03/13 01:02:01;;;;;;;43.73;20.30;;;2.50;82.20;;;;;;5004235;28;20727;-82
2022/03/13 01:04:50;;;;;;;43.13;20.67;;;2.50;83.20;;;;;;4994106;28;20617;-82
2022/03/13 01:07:40;;;;;;;41.00;19.60;;;2.50;83.20;;;;;;4988459;28;20246;-81
2022/03/13 01:10:33;;;;;;;40.23;20.10;;;2.50;83.00;;;;;;4985749;28;20230;-81
2022/03/13 01:13:23;;;;;;;40.60;20.27;;;2.50;83.80;;;;;;4998044;28;20755;-81
2022/03/13 01:16:16;;;;;;;38.67;19.77;;;2.50;84.60;;;;;;4984447;28;20210;-82
2022/03/13 01:19:05;;;;;;;45.23;20.63;;;2.50;83.60;;;;;;5001703;28;20308;-82
2022/03/13 01:21:54;;;;;;;40.77;21.00;;;2.50;84.30;;;;;;4986437;28;20288;-82
2022/03/13 01:24:45;;;;;;;39.00;19.37;;;2.50;84.60;;;;;;4986628;28;20309;-82
2022/03/13 01:27:35;;;;;;;41.23;20.00;;;2.50;85.30;;;;;;5001683;28;20226;-82
2022/03/13 01:30:23;;;;;;;48.03;20.00;;;2.50;84.30;;;;;;4991797;28;21183;-80
2022/03/13 01:33:12;;;;;;;39.67;19.60;;;2.50;84.10;;;;;;5005399;28;20287;-81
2022/03/13 01:36:01;;;;;;;43.27;20.97;;;2.40;85.10;;;;;;5004698;28;20218;-81
2022/03/13 01:38:53;;;;;;;47.53;24.03;;;2.40;85.00;;;;;;4991413;28;20227;-80
2022/03/13 01:41:44;;;;;;;42.27;20.47;;;2.40;85.40;;;;;;4997198;28;20210;-81
2022/03/13 01:44:32;;;;;;;48.73;20.87;;;2.40;85.50;;;;;;4994144;28;20233;-81
2022/03/13 01:47:21;;;;;;;49.20;20.33;;;2.40;85.20;;;;;;4990650;28;20233;-80
2022/03/13 01:50:11;;;;;;;44.53;20.70;;;2.40;85.40;;;;;;5003202;28;20317;-81
2022/03/13 01:53:02;;;;;;;43.07;20.60;;;2.30;86.20;;;;;;4988781;28;20445;-80
2022/03/13 01:55:51;;;;;;;46.73;21.50;;;2.30;85.30;;;;;;4986399;28;20338;-81
2022/03/13 01:58:42;;;;;;;40.10;20.17;;;2.30;85.90;;;;;;5003480;28;20876;-80
2022/03/13 02:01:31;;;;;;;41.70;19.77;;;2.30;86.10;;;;;;4988475;28;20218;-81
2022/03/13 02:04:26;;;;;;;46.80;19.73;;;2.30;86.30;;;;;;4984820;28;20222;-81
2022/03/13 02:07:15;;;;;;;41.67;20.03;;;2.30;85.20;;;;;;5004136;28;20222;-80
2022/03/13 02:10:05;;;;;;;44.90;20.47;;;2.30;86.10;;;;;;4983293;28;20218;-81
2022/03/13 02:12:55;;;;;;;42.03;19.60;;;2.20;86.20;;;;;;4984568;28;20333;-81
2022/03/13 02:15:46;;;;;;;42.63;19.20;;;2.20;86.50;;;;;;4991163;28;20727;-81
2022/03/13 02:18:35;;;;;;;45.50;21.13;;;2.30;86.60;;;;;;4991777;28;20222;-81
2022/03/13 02:21:26;;;;;;;43.20;20.40;;;2.20;86.10;;;;;;4989629;28;20789;-80
2022/03/13 02:24:18;;;;;;;37.47;20.73;;;2.20;86.10;;;;;;5000106;28;20226;-80
2022/03/13 02:27:09;;;;;;;54.67;21.97;;;2.30;85.60;;;;;;4986058;28;20404;-81
2022/03/13 02:29:58;;;;;;;40.07;19.23;;;2.10;87.50;;;;;;4987803;28;20705;-81
2022/03/13 02:32:47;;;;;;;39.23;19.00;;;2.10;86.90;;;;;;4986379;28;20701;-81
2022/03/13 02:35:40;;;;;;;34.70;17.20;;;2.20;88.30;;;;;;4990508;28;20218;-80
2022/03/13 02:38:30;;;;;;;36.20;18.80;;;2.10;81.80;;;;;;4989812;28;20218;-81
2022/03/13 02:41:20;;;;;;;37.90;18.00;;;2.20;82.30;;;;;;5001475;28;20384;-81
2022/03/13 02:44:10;;;;;;;35.83;17.67;;;2.30;81.90;;;;;;5000926;28;20226;-81
2022/03/13 02:47:02;;;;;;;38.60;17.90;;;2.40;74.90;;;;;;4990428;28;20214;-81
2022/03/13 02:49:51;;;;;;;41.53;19.60;;;2.40;73.50;;;;;;4994427;28;20233;-81
2022/03/13 02:52:41;;;;;;;38.23;18.00;;;2.50;75.40;;;;;;4993430;28;20747;-81
2022/03/13 02:55:30;;;;;;;37.53;18.90;;;2.50;77.40;;;;;;4994618;28;20704;-81
2022/03/13 02:58:22;;;;;;;39.23;18.90;;;2.50;77.50;;;;;;4992184;28;20222;-80
2022/03/13 03:01:11;;;;;;;37.03;18.70;;;2.60;78.50;;;;;;5002452;28;20222;-79
2022/03/13 03:04:01;;;;;;;37.77;18.33;;;2.60;77.90;;;;;;4990251;28;20230;-81
2022/03/13 03:06:59;;;;;;;41.47;19.07;;;2.60;79.50;;;;;;4989535;28;20238;-81
2022/03/13 03:09:48;;;;;;;36.57;19.13;;;2.70;75.70;;;;;;4993162;28;20248;-80
2022/03/13 03:12:37;;;;;;;40.93;19.07;;;2.80;71.20;;;;;;5004722;28;20222;-81
2022/03/13 03:15:28;;;;;;;38.23;19.80;;;2.90;68.90;;;;;;4996821;28;20222;-84
2022/03/13 03:18:17;;;;;;;41.07;19.07;;;2.90;68.10;;;;;;4988422;28;20712;-84
2022/03/13 03:21:06;;;;;;;37.73;18.37;;;3.00;68.00;;;;;;4994161;28;20791;-84
2022/03/13 03:23:55;;;;;;;39.00;18.90;;;3.10;68.40;;;;;;4982168;28;20237;-83
2022/03/13 03:26:46;;;;;;;38.83;19.53;;;3.10;68.60;;;;;;4996596;28;20265;-85
2022/03/13 03:29:35;;;;;;;38.63;19.20;;;3.10;71.10;;;;;;4994613;28;20373;-83
2022/03/13 03:32:25;;;;;;;50.10;23.70;;;3.10;72.50;;;;;;4998741;28;20218;-84
2022/03/13 03:35:14;;;;;;;38.60;19.10;;;3.20;73.70;;;;;;4993473;28;20219;-84
2022/03/13 03:38:03;;;;;;;40.30;19.23;;;3.20;70.60;;;;;;4995924;28;20748;-83
2022/03/13 03:40:51;;;;;;;39.07;19.00;;;3.20;68.40;;;;;;4994618;28;20280;-82
2022/03/13 03:43:41;;;;;;;39.00;19.73;;;3.30;70.30;;;;;;4992657;28;20601;-82
2022/03/13 03:46:34;;;;;;;39.13;19.20;;;3.30;70.00;;;;;;4995409;28;20229;-82
2022/03/13 03:49:25;;;;;;;41.87;20.80;;;3.30;69.30;;;;;;4993757;28;20277;-80
2022/03/13 03:52:13;;;;;;;42.30;19.30;;;3.30;72.70;;;;;;5007747;28;20235;-81
2022/03/13 03:55:02;;;;;;;39.70;19.97;;;3.30;71.10;;;;;;4992699;28;20234;-81
2022/03/13 03:57:51;;;;;;;39.93;20.03;;;3.20;73.60;;;;;;5007953;28;20912;-80
2022/03/13 04:00:40;;;;;;;40.27;19.87;;;3.20;74.50;;;;;;4996481;28;20214;-81
2022/03/13 04:03:29;;;;;;;45.00;20.33;;;3.20;75.20;;;;;;4988766;28;20214;-81
2022/03/13 04:06:20;;;;;;;39.73;19.40;;;3.20;76.20;;;;;;4991297;28;20831;-80
2022/03/13 04:09:12;;;;;;;39.37;19.63;;;3.20;75.70;;;;;;5000826;28;20218;-81
2022/03/13 04:12:01;;;;;;;38.97;19.10;;;3.20;75.30;;;;;;4991467;28;20248;-83
2022/03/13 04:14:49;;;;;;;44.87;20.03;;;3.30;71.40;;;;;;4986789;28;20218;-82
2022/03/13 04:17:38;;;;;;;42.17;20.57;;;3.30;72.40;;;;;;4989925;28;20657;-83
2022/03/13 04:20:27;;;;;;;35.83;19.00;;;3.30;72.90;;;;;;4990293;28;20328;-83
2022/03/13 04:23:18;;;;;;;36.20;18.30;;;3.30;71.00;;;;;;5007785;28;20330;-82
2022/03/13 04:26:06;;;;;;;35.30;18.10;;;3.30;66.70;;;;;;4995968;28;20226;-84
2022/03/13 04:28:55;;;;;;;35.27;18.60;;;3.30;65.60;;;;;;4992970;28;20248;-84
2022/03/13 04:31:46;;;;;;;35.97;19.10;;;3.40;67.30;;;;;;5005837;28;20828;-82
2022/03/13 04:34:37;;;;;;;36.70;19.00;;;3.30;68.10;;;;;;4969299;28;20226;-83
2022/03/13 04:37:27;;;;;;;48.07;19.57;;;3.30;67.50;;;;;;5002340;28;20221;-82
2022/03/13 04:40:17;;;;;;;37.67;20.77;;;3.20;66.60;;;;;;5005879;28;20305;-84
2022/03/13 04:43:08;;;;;;;41.83;20.13;;;3.10;66.00;;;;;;4999098;28;20226;-83
2022/03/13 04:45:57;;;;;;;39.60;20.47;;;3.00;65.90;;;;;;4994178;28;20296;-80
2022/03/13 04:48:47;;;;;;;47.20;22.20;;;3.00;65.80;;;;;;4990763;28;20973;-80
2022/03/13 04:51:36;;;;;;;45.00;22.63;;;3.00;65.90;;;;;;5004270;28;20233;-80
2022/03/13 04:54:25;;;;;;;48.50;23.40;;;3.00;65.90;;;;;;4988074;28;20242;-79
2022/03/13 04:57:16;;;;;;;50.97;24.07;;;2.90;65.90;;;;;;4989765;28;20253;-82
2022/03/13 05:00:05;;;;;;;49.43;25.33;;;2.90;66.90;;;;;;4993139;28;20422;-79
2022/03/13 05:02:55;;;;;;;50.13;26.90;;;3.00;66.50;;;;;;5006808;28;20228;-80
2022/03/13 05:05:46;;;;;;;51.30;26.33;;;3.00;66.90;;;;;;4990761;28;20244;-80
2022/03/13 05:08:36;;;;;;;48.73;25.13;;;3.00;67.00;;;;;;5004547;28;20222;-80
2022/03/13 05:11:24;;;;;;;47.33;24.87;;;2.90;66.70;;;;;;4989776;28;20226;-80
2022/03/13 05:14:15;;;;;;;44.17;23.43;;;2.90;66.60;;;;;;4991048;28;20226;-80
2022/03/13 05:17:04;;;;;;;43.67;21.13;;;3.00;66.60;;;;;;4989256;28;20226;-81
2022/03/13 05:19:53;;;;;;;44.50;22.07;;;2.90;65.90;;;;;;4993582;28;20236;-80
2022/03/13 05:22:42;;;;;;;44.57;22.87;;;2.90;65.60;;;;;;5006578;28;20226;-80
2022/03/13 05:25:36;;;;;;;52.43;23.60;;;2.80;65.60;;;;;;5008147;28;20241;-83
2022/03/13 05:28:25;;;;;;;48.70;22.90;;;2.70;66.10;;;;;;4997331;28;20329;-83
2022/03/13 05:31:16;;;;;;;47.60;24.00;;;2.60;66.90;;;;;;5009384;28;20241;-85
2022/03/13 05:34:07;;;;;;;57.43;26.13;;;2.60;67.50;;;;;;4990572;28;20998;-83
2022/03/13 05:36:55;;;;;;;58.43;26.90;;;2.60;68.00;;;;;;5006564;28;20229;-83
2022/03/13 05:39:44;;;;;;;54.10;26.43;;;2.50;68.70;;;;;;5010114;28;20309;-82
2022/03/13 05:42:33;;;;;;;56.80;27.70;;;2.50;68.80;;;;;;5001152;28;20222;-82
2022/03/13 05:45:23;;;;;;;52.60;26.17;;;2.50;68.80;;;;;;5009655;28;20202;-81
2022/03/13 05:48:17;;;;;;;55.50;26.73;;;2.40;69.00;;;;;;5021575;28;20230;-79
2022/03/13 05:51:07;;;;;;;57.00;27.77;;;2.40;69.30;;;;;;5004685;28;20226;-79
2022/03/13 05:53:56;;;;;;;53.90;27.27;;;2.50;69.50;;;;;;4993666;28;20229;-78
2022/03/13 05:56:46;;;;;;;63.20;28.80;;;2.60;69.60;;;;;;4998395;28;20225;-79
2022/03/13 05:59:35;;;;;;;56.37;29.30;;;2.60;69.30;;;;;;4991640;28;20561;-79
2022/03/13 06:02:24;;;;;;;55.80;29.13;;;2.80;69.60;;;;;;4994439;28;20287;-79
2022/03/13 06:05:17;;;;;;;61.03;30.37;;;2.70;69.20;;;;;;4989450;28;20233;-80
2022/03/13 06:08:06;;;;;;;56.57;29.07;;;2.80;69.30;;;;;;4992087;28;20230;-81
2022/03/13 06:10:55;;;;;;;60.97;29.93;;;2.80;68.70;;;;;;4984918;28;20245;-79
2022/03/13 06:13:43;;;;;;;65.53;30.90;;;2.70;68.10;;;;;;4989943;28;20214;-80
2022/03/13 06:16:35;;;;;;;63.70;32.33;;;2.80;68.70;;;;;;5001129;28;20291;-79
2022/03/13 06:19:24;;;;;;;68.07;33.83;;;2.70;68.90;;;;;;4989855;28;20236;-80
2022/03/13 06:22:15;;;;;;;68.60;33.40;;;2.60;69.30;;;;;;5006080;28;20237;-80
2022/03/13 06:25:06;;;;;;;64.93;31.90;;;2.70;68.90;;;;;;4987096;28;20233;-78
2022/03/13 06:27:55;;;;;;;65.50;32.30;;;2.70;68.60;;;;;;4990288;28;20244;-80
2022/03/13 06:30:44;;;;;;;63.77;31.67;;;2.70;68.20;;;;;;5006443;28;20229;-81
2022/03/13 06:33:33;;;;;;;68.10;31.70;;;2.70;67.80;;;;;;4992488;28;20222;-78
2022/03/13 06:36:23;;;;;;;73.03;35.73;;;2.80;67.70;;;;;;5002547;28;20238;-81
2022/03/13 06:39:13;;;;;;;66.60;33.80;;;2.80;68.30;;;;;;4988037;28;20253;-80
2022/03/13 06:42:02;;;;;;;69.47;33.73;;;2.90;68.20;;;;;;5000710;28;20230;-80
2022/03/13 06:44:51;;;;;;;74.77;35.07;;;2.90;68.20;;;;;;5003105;28;20237;-80
2022/03/13 06:47:44;;;;;;;69.07;34.40;;;3.00;68.10;;;;;;5005274;28;20225;-80
2022/03/13 06:50:33;;;;;;;67.00;33.53;;;3.00;68.20;;;;;;4991123;28;20218;-80
2022/03/13 06:53:22;;;;;;;70.57;34.87;;;3.10;67.20;;;;;;4991576;28;20281;-80
2022/03/13 06:56:12;;;;;;;69.80;32.60;;;3.00;66.80;;;;;;5002166;28;20233;-79
2022/03/13 06:59:03;;;;;;;63.60;32.43;;;3.10;66.30;;;;;;5003488;28;20600;-81
2022/03/13 07:01:52;;;;;;;65.23;32.57;;;3.00;65.40;;;;;;5004794;28;20313;-81
2022/03/13 07:04:41;;;;;;;67.97;33.77;;;3.10;65.40;;;;;;4984599;28;20230;-80
2022/03/13 07:07:33;;;;;;;69.03;34.70;;;3.20;65.10;;;;;;4978216;28;20226;-80
2022/03/13 07:10:22;;;;;;;69.57;34.57;;;3.30;65.50;;;;;;4989833;28;20364;-80
2022/03/13 07:13:16;;;;;;;69.10;34.97;;;3.40;65.50;;;;;;4989549;28;20226;-80
2022/03/13 07:16:08;;;;;;;61.90;32.83;;;3.50;65.00;;;;;;5002591;28;20536;-79
2022/03/13 07:18:57;;;;;;;78.63;36.63;;;3.20;64.50;;;;;;5000669;28;20236;-82
2022/03/13 07:21:46;;;;;;;76.07;37.27;;;3.30;65.30;;;;;;4988561;28;20227;-81
2022/03/13 07:24:35;;;;;;;71.17;34.63;;;3.40;65.90;;;;;;4994161;28;20254;-81
2022/03/13 07:27:24;;;;;;;68.70;33.27;;;3.40;65.90;;;;;;5005169;28;20207;-81
2022/03/13 07:30:15;;;;;;;67.37;34.40;;;3.40;65.50;;;;;;4990764;28;20222;-80
2022/03/13 07:33:03;;;;;;;70.83;35.83;;;3.50;65.50;;;;;;5006105;28;20325;-79
2022/03/13 07:35:55;;;;;;;66.23;33.63;;;3.60;65.70;;;;;;4995371;28;20230;-81
2022/03/13 07:38:44;;;;;;;62.87;31.20;;;3.80;65.30;;;;;;5004687;28;20262;-81
2022/03/13 07:41:34;;;;;;;67.57;34.03;;;3.80;64.50;;;;;;5021035;28;20305;-82
2022/03/13 07:44:23;;;;;;;62.33;34.03;;;3.90;64.50;;;;;;4996682;28;20708;-81
2022/03/13 07:47:14;;;;;;;62.57;32.63;;;4.00;64.90;;;;;;4990582;28;20801;-81
2022/03/13 07:50:03;;;;;;;69.97;35.07;;;4.20;64.50;;;;;;4997897;28;20234;-81
2022/03/13 07:52:52;;;;;;;59.37;31.37;;;4.30;64.50;;;;;;5007439;28;20227;-80
2022/03/13 07:55:41;;;;;;;63.33;29.83;;;4.50;64.10;;;;;;5009117;28;20630;-81
2022/03/13 07:58:32;;;;;;;60.63;32.10;;;4.40;63.80;;;;;;5007367;28;20233;-82
2022/03/13 08:01:21;;;;;;;60.23;33.53;;;4.50;64.00;;;;;;4995568;28;20225;-80
2022/03/13 08:04:11;;;;;;;63.53;33.33;;;4.70;63.80;;;;;;5007395;28;20222;-81
2022/03/13 08:07:00;;;;;;;65.77;33.77;;;4.90;63.90;;;;;;4994027;28;20253;-80
2022/03/13 08:09:50;;;;;;;62.60;33.63;;;5.40;63.20;;;;;;5008870;28;20842;-83
2022/03/13 08:12:39;;;;;;;56.50;32.63;;;9.60;60.40;;;;;;5009336;28;20313;-80
2022/03/13 08:15:28;;;;;;;61.60;33.23;;;11.90;53.80;;;;;;4995473;28;20312;-80
2022/03/13 08:18:20;;;;;;;61.83;34.67;;;12.60;50.80;;;;;;5004379;28;20241;-81
2022/03/13 08:21:12;;;;;;;58.33;33.88;;;14.10;49.10;;;;;;4962896;28;20241;-81
2022/03/13 08:24:01;;;;;;;55.97;34.03;;;14.90;47.40;;;;;;5007597;28;20237;-81
2022/03/13 08:26:50;;;;;;;59.50;34.08;;;15.50;46.30;;;;;;4992797;28;20210;-80
2022/03/13 08:29:41;;;;;;;58.50;32.50;;;16.30;45.10;;;;;;5002380;28;20926;-81
2022/03/13 08:32:30;;;;;;;54.65;32.15;;;16.90;43.20;;;;;;5005470;28;20230;-79
2022/03/13 08:35:20;;;;;;;58.22;33.40;;;17.60;42.50;;;;;;4989924;28;20226;-80
2022/03/13 08:38:12;;;;;;;56.85;35.28;;;17.40;41.90;;;;;;4986465;28;20814;-81
2022/03/13 08:41:01;;;;;;;56.75;34.13;;;18.20;41.80;;;;;;4982779;28;20856;-78
2022/03/13 08:43:49;;;;;;;55.95;31.02;;;17.50;40.40;;;;;;5003710;28;20226;-77
2022/03/13 08:46:38;;;;;;;53.60;29.35;;;16.80;42.80;;;;;;5006889;28;20214;-78
2022/03/13 08:49:28;;;;;;;49.97;31.48;;;17.20;41.60;;;;;;5007686;28;20701;-78
2022/03/13 08:52:16;;;;;;;59.72;34.70;;;16.00;44.10;;;;;;4991104;28;20222;-78
2022/03/13 08:55:08;;;;;;;53.88;32.90;;;16.80;43.40;;;;;;5004996;28;20230;-79
2022/03/13 08:57:57;;;;;;;49.80;31.67;;;17.80;41.80;;;;;;4989126;28;20218;-78
2022/03/13 09:00:46;;;;;;;49.72;31.38;;;17.80;42.30;;;;;;4989216;28;20219;-78
2022/03/13 09:03:36;;;;;;;49.30;30.55;;;18.40;41.10;;;;;;4987768;28;20225;-78
2022/03/13 09:06:24;;;;;;;52.22;32.97;;;18.40;41.20;;;;;;4993750;28;20681;-79
2022/03/13 09:09:13;;;;;;;51.22;33.63;;;18.40;40.50;;;;;;5008448;28;20684;-79
2022/03/13 09:12:06;;;;;;;53.20;32.55;;;17.00;41.00;;;;;;4991528;28;20260;-80
2022/03/13 09:14:54;;;;;;;48.90;32.38;;;17.60;42.40;;;;;;5007615;28;20248;-81
2022/03/13 09:17:43;;;;;;;54.95;33.00;;;17.90;41.60;;;;;;5010200;28;20222;-81
2022/03/13 09:20:32;;;;;;;57.58;34.60;;;13.80;44.00;;;;;;4992213;28;20695;-82
2022/03/13 09:23:21;;;;;;;60.05;34.78;;;12.30;47.00;;;;;;4997321;28;20237;-80
2022/03/13 09:26:10;;;;;;;53.17;31.17;;;11.30;49.50;;;;;;5006596;28;20657;-82
2022/03/13 09:29:01;;;;;;;51.53;29.52;;;10.60;51.20;;;;;;4993119;28;20238;-81
2022/03/13 09:31:50;;;;;;;44.17;27.45;;;9.60;53.60;;;;;;5007110;28;20232;-82
2022/03/13 09:34:40;;;;;;;52.43;28.73;;;9.10;55.20;;;;;;4992253;28;20229;-83
2022/03/13 09:37:28;;;;;;;47.03;28.83;;;8.60;56.00;;;;;;5006127;28;20224;-82
2022/03/13 09:40:33;;;;;;;40.50;25.80;;;8.60;57.00;;;;;;4999807;28;20312;-82
2022/03/13 09:43:22;;;;;;;42.37;25.17;;;8.30;57.10;;;;;;5010810;28;20872;-81
2022/03/13 09:46:12;;;;;;;42.90;24.30;;;8.30;57.70;;;;;;5018222;28;20704;-83
2022/03/13 09:49:01;;;;;;;36.10;24.53;;;8.80;57.80;;;;;;4999392;28;20314;-81
2022/03/13 09:51:52;;;;;;;38.43;23.63;;;8.90;57.40;;;;;;5025209;28;20224;-81
2022/03/13 09:54:41;;;;;;;36.50;22.80;;;8.60;57.80;;;;;;5011581;28;20216;-82
2022/03/13 09:57:30;;;;;;;36.37;22.10;;;8.40;58.50;;;;;;5008083;28;20229;-82
2022/03/13 10:00:21;;;;;;;35.70;22.50;;;8.20;58.90;;;;;;4995520;28;20725;-81
2022/03/13 10:03:13;;;;;;;34.80;20.87;;;8.10;59.60;;;;;;4994135;28;20227;-81
2022/03/13 10:06:02;;;;;;;28.70;18.87;;;8.20;59.90;;;;;;4990216;28;20226;-76
2022/03/13 10:08:51;;;;;;;35.63;20.77;;;8.20;60.90;;;;;;5001623;28;20461;-79
2022/03/13 10:11:40;;;;;;;36.60;20.87;;;8.30;60.70;;;;;;4987761;28;20230;-78
2022/03/13 10:14:29;;;;;;;39.10;22.07;;;8.20;60.50;;;;;;4993137;28;20226;-77
2022/03/13 10:17:30;;;;;;;33.80;18.20;;;8.10;60.80;;;;;;4991152;28;20684;-78
2022/03/13 10:20:23;;;;;;;33.37;18.50;;;8.20;62.00;;;;;;4991709;28;20726;-77
2022/03/13 10:23:16;;;;;;;35.00;20.03;;;8.30;62.00;;;;;;5002353;28;20701;-78
2022/03/13 10:26:06;;;;;;;27.73;17.50;;;8.50;61.90;;;;;;4990319;28;20260;-78
2022/03/13 10:28:55;;;;;;;30.37;17.17;;;8.40;62.10;;;;;;5003271;28;20986;-78
2022/03/13 10:31:54;;;;;;;29.50;16.37;;;8.50;62.80;;;;;;5000582;28;20544;-79
2022/03/13 10:34:56;;;;;;;26.70;16.73;;;8.40;62.50;;;;;;5002700;28;20237;-80
2022/03/13 10:37:46;;;;;;;27.13;16.53;;;8.40;62.80;;;;;;4988332;28;20315;-80
2022/03/13 10:40:36;;;;;;;27.33;16.70;;;8.50;63.00;;;;;;5008991;28;20230;-83
2022/03/13 10:43:27;;;;;;;24.70;14.77;;;8.50;63.10;;;;;;5008094;28;20252;-83
2022/03/13 10:46:26;;;;;;;23.27;15.13;;;8.70;63.10;;;;;;4988819;28;20231;-83
2022/03/13 10:49:16;;;;;;;25.77;15.13;;;8.70;63.10;;;;;;4996020;28;20370;-83
2022/03/13 10:52:25;;;;;;;26.73;15.87;;;8.80;62.70;;;;;;4995519;28;20222;-83
2022/03/13 10:55:21;;;;;;;24.47;14.90;;;8.90;62.50;;;;;;4995537;28;21074;-84
2022/03/13 10:58:10;;;;;;;24.50;15.30;;;8.90;62.40;;;;;;4993730;28;20232;-84
2022/03/13 11:01:04;;;;;;;24.27;13.93;;;8.90;62.50;;;;;;5006949;28;20224;-84
2022/03/13 11:03:55;;;;;;;24.27;14.27;;;8.70;63.10;;;;;;4991101;28;20265;-84
2022/03/13 11:06:44;;;;;;;29.03;15.50;;;8.80;63.20;;;;;;4996908;28;20227;-84
2022/03/13 11:09:33;;;;;;;23.83;15.17;;;8.90;63.00;;;;;;5012287;28;20218;-82
2022/03/13 11:12:26;;;;;;;24.90;15.27;;;8.90;62.50;;;;;;4994164;28;20246;-83
2022/03/13 11:15:15;;;;;;;25.83;15.63;;;9.00;62.50;;;;;;4993253;28;20226;-82
2022/03/13 11:18:09;;;;;;;21.00;13.90;;;9.00;62.30;;;;;;4991514;28;20248;-84
2022/03/13 11:20:59;;;;;;;21.87;14.60;;;8.90;62.40;;;;;;4991650;28;20228;-84
2022/03/13 13:09:53;;;;;;;28.73;16.43;;;9.50;61.60;;;;;;5064769;27;20580;-85
2022/03/13 13:12:43;;;;;;;27.57;16.10;;;9.40;61.90;;;;;;5061584;28;20222;-85
2022/03/13 13:15:34;;;;;;;25.50;15.27;;;9.50;62.00;;;;;;5058772;28;20219;-85
2022/03/13 13:18:24;;;;;;;24.77;15.07;;;9.50;62.00;;;;;;5070529;28;20222;-85
2022/03/13 13:21:13;;;;;;;25.73;15.77;;;9.50;61.90;;;;;;5068301;28;20258;-85
2022/03/13 13:24:22;;;;;;;24.77;15.10;;;9.40;62.90;;;;;;5071447;28;20224;-85
2022/03/13 13:27:12;;;;;;;25.17;15.17;;;9.30;62.40;;;;;;5103771;28;20226;-86
2022/03/13 14:33:24;;;;;;;18.23;11.20;;;9.20;62.50;;;;;;5081362;27;20560;-86
2022/03/13 14:36:13;;;;;;;18.00;11.07;;;9.20;63.40;;;;;;5050168;28;20232;-86
2022/03/13 14:39:03;;;;;;;16.93;10.67;;;9.30;63.40;;;;;;5097176;28;20225;-90
2022/03/13 14:41:52;;;;;;;20.58;13.48;;;9.20;63.20;;;;;;5089538;28;20439;-88
2022/03/13 14:44:41;;;;;;;17.30;11.03;;;9.20;63.00;;;;;;5092468;28;20225;-88
2022/03/13 14:47:30;;;;;;;19.20;11.17;;;9.30;63.00;;;;;;5089765;28;20307;-89
2022/03/13 14:50:42;;;;;;;16.60;11.03;;;9.30;62.90;;;;;;5108969;28;20566;-89
2022/03/13 14:53:33;;;;;;;18.23;11.50;;;9.20;62.90;;;;;;5109861;28;20228;-89
2022/03/13 14:56:21;;;;;;;16.93;11.47;;;9.20;63.00;;;;;;5084330;28;20215;-90
2022/03/13 14:59:11;;;;;;;18.67;11.83;;;9.20;63.10;;;;;;5110293;28;20223;-88
2022/03/13 15:02:02;;;;;;;19.63;11.80;;;9.20;63.40;;;;;;5080057;28;20247;-86
2022/03/13 15:04:50;;;;;;;18.13;11.80;;;9.10;63.80;;;;;;5097506;28;20312;-87
2022/03/13 15:07:41;;;;;;;22.13;12.17;;;9.10;64.40;;;;;;5092812;28;20218;-86
2022/03/13 15:10:30;;;;;;;17.33;11.63;;;9.00;65.00;;;;;;5116847;27;20223;-86
2022/03/13 15:13:19;;;;;;;19.20;11.63;;;9.00;65.30;;;;;;5081450;28;20230;-87
2022/03/13 15:16:08;;;;;;;18.33;11.93;;;9.00;65.20;;;;;;5083612;28;20232;-79
2022/03/13 15:18:57;;;;;;;20.17;11.93;;;8.90;65.20;;;;;;5083054;28;20300;-78
2022/03/13 15:21:46;;;;;;;17.47;11.67;;;8.80;65.50;;;;;;5091499;28;20220;-79
2022/03/13 15:24:36;;;;;;;19.33;12.13;;;8.90;65.90;;;;;;5088696;28;20226;-81
2022/03/13 15:27:27;;;;;;;20.63;13.30;;;8.80;66.00;;;;;;5099225;28;20231;-80
2022/03/13 17:46:20;;;;;;;21.30;11.63;;;6.20;93.00;;;;;;5070447;27;21104;-76
2022/03/13 17:49:09;;;;;;;19.63;11.50;;;6.20;93.90;;;;;;5039603;28;21089;-77
2022/03/13 17:51:58;;;;;;;19.17;11.67;;;6.00;95.10;;;;;;5038154;28;20231;-77
2022/03/13 17:54:47;;;;;;;20.63;12.13;;;6.00;96.30;;;;;;5054273;28;20291;-77
2022/03/13 17:57:35;;;;;;;20.63;11.00;;;6.00;97.00;;;;;;5073838;28;20227;-77
2022/03/13 18:00:24;;;;;;;19.80;11.83;;;5.90;97.30;;;;;;5057741;28;20227;-80
2022/03/13 18:03:14;;;;;;;18.63;11.63;;;5.90;97.40;;;;;;5081563;28;20207;-77
2022/03/13 18:06:03;;;;;;;22.60;13.23;;;5.90;97.60;;;;;;5081816;28;20250;-80
2022/03/13 18:08:52;;;;;;;20.40;12.57;;;5.80;99.20;;;;;;5085218;28;20221;-79
2022/03/13 18:11:41;;;;;;;21.50;12.43;;;5.80;99.30;;;;;;5068961;28;20562;-80
2022/03/13 18:14:30;;;;;;;20.73;12.53;;;5.70;99.90;;;;;;5070177;28;20693;-80
2022/03/13 18:17:19;;;;;;;23.03;12.30;;;5.70;99.90;;;;;;5068201;28;21579;-81
2022/03/13 18:20:10;;;;;;;22.33;12.23;;;5.70;99.90;;;;;;5037681;28;20293;-80
2022/03/13 18:22:59;;;;;;;22.20;12.30;;;5.70;99.90;;;;;;5094420;28;20236;-79
2022/03/13 18:25:47;;;;;;;18.97;11.57;;;5.70;99.90;;;;;;5080829;28;20219;-80
2022/03/13 18:28:36;;;;;;;22.10;12.53;;;5.60;99.90;;;;;;5073388;28;20728;-81
2022/03/13 18:31:25;;;;;;;22.03;13.23;;;5.60;99.90;;;;;;5083567;28;20212;-80
2022/03/13 18:34:14;;;;;;;20.50;12.33;;;5.50;99.90;;;;;;5068969;28;20717;-79
2022/03/13 18:37:05;;;;;;;20.27;11.90;;;5.50;99.90;;;;;;5083065;28;20704;-80
2022/03/13 18:39:55;;;;;;;21.37;13.47;;;5.40;99.90;;;;;;5080332;28;20208;-81
2022/03/13 18:42:43;;;;;;;24.43;13.30;;;5.40;99.90;;;;;;5065922;28;20807;-80
2022/03/13 18:45:32;;;;;;;21.80;12.90;;;5.40;99.90;;;;;;5051147;28;20228;-80
2022/03/13 18:48:21;;;;;;;25.53;13.40;;;5.30;99.90;;;;;;5072861;28;20231;-81
2022/03/13 18:51:10;;;;;;;26.50;13.57;;;5.30;99.90;;;;;;5097893;27;20230;-80
2022/03/13 18:54:00;;;;;;;24.83;14.43;;;5.20;99.90;;;;;;5077826;28;20233;-84
2022/03/13 18:56:49;;;;;;;26.40;13.93;;;5.10;99.90;;;;;;5095030;27;20220;-84
2022/03/13 18:59:37;;;;;;;25.60;15.07;;;5.20;99.90;;;;;;5095276;28;20772;-84
2022/03/13 19:02:26;;;;;;;24.13;14.27;;;5.10;99.90;;;;;;5083252;28;20259;-84
2022/03/13 19:05:15;;;;;;;29.17;15.10;;;5.20;99.90;;;;;;5084852;28;20227;-84
2022/03/13 19:08:06;;;;;;;29.07;15.47;;;5.00;99.90;;;;;;5078676;28;20231;-85
2022/03/13 19:10:56;;;;;;;30.37;15.73;;;4.80;99.90;;;;;;5068326;28;20228;-84
2022/03/13 19:13:48;;;;;;;28.30;15.20;;;4.90;99.90;;;;;;5054426;28;20234;-83
2022/03/13 19:16:38;;;;;;;30.57;15.27;;;4.80;99.90;;;;;;5082665;28;20235;-83
2022/03/13 19:19:27;;;;;;;28.93;15.53;;;4.80;99.90;;;;;;5061516;28;20224;-83
2022/03/13 19:22:17;;;;;;;31.03;15.80;;;4.70;99.90;;;;;;5062114;28;20221;-84
2022/03/13 19:25:09;;;;;;;26.93;15.93;;;4.70;99.90;;;;;;5086759;28;20230;-85
2022/03/13 19:28:02;;;;;;;28.17;16.13;;;4.60;99.90;;;;;;5074488;28;20313;-83
2022/03/13 19:30:51;;;;;;;31.00;15.60;;;4.50;99.90;;;;;;5082064;28;20239;-84
2022/03/13 19:33:40;;;;;;;28.20;15.20;;;4.50;99.90;;;;;;5053058;28;20228;-83
2022/03/13 19:36:29;;;;;;;31.03;15.23;;;4.60;99.90;;;;;;5078295;28;20235;-83
2022/03/13 19:39:18;;;;;;;29.90;16.10;;;4.50;99.90;;;;;;5077143;28;20257;-82